createdAt,value
2023-05-05T00:00:19.592Z,95963.3828
2023-05-05T00:01:20.669Z,95962.9219
2023-05-05T00:02:21.739Z,95959.1562
2023-05-05T00:03:22.900Z,95958.9219
2023-05-05T00:04:23.694Z,95958.2344
2023-05-05T00:05:24.762Z,95956.9219
2023-05-05T00:06:25.784Z,95955.6953
2023-05-05T00:07:26.836Z,95955.1562
2023-05-05T00:08:27.851Z,95953.9219
2023-05-05T00:09:28.942Z,95954.4609
2023-05-05T00:10:29.967Z,95954.7656
2023-05-05T00:11:30.974Z,95954.0000
2023-05-05T00:12:32.032Z,95952.9219
2023-05-05T00:13:32.996Z,95952.3828
2023-05-05T00:14:34.033Z,95951.4609
2023-05-05T00:15:35.091Z,95952.2344
2023-05-05T00:16:36.185Z,95951.6172
2023-05-05T00:17:37.201Z,95950.4609
2023-05-05T00:18:38.166Z,95950.5391
2023-05-05T00:19:39.233Z,95949.4609
2023-05-05T00:20:40.240Z,95949.1562
2023-05-05T00:21:41.312Z,95948.4609
2023-05-05T00:22:42.329Z,95948.9219
2023-05-05T00:23:43.376Z,95949.4609
2023-05-05T00:24:44.408Z,95949.6172
2023-05-05T00:25:45.456Z,95950.3047
2023-05-05T00:26:46.469Z,95948.8438
2023-05-05T00:27:47.529Z,95948.3828
2023-05-05T00:28:48.504Z,95946.9219
2023-05-05T00:29:49.567Z,95946.0000
2023-05-05T00:30:50.608Z,95945.1562
2023-05-05T00:31:51.632Z,95944.1562
2023-05-05T00:32:52.690Z,95943.0000
2023-05-05T00:33:53.732Z,95943.3047
2023-05-05T00:34:54.716Z,95943.6953
2023-05-05T00:35:55.812Z,95943.3828
2023-05-05T00:36:56.798Z,95944.0781
2023-05-05T00:37:57.873Z,95944.3828
2023-05-05T00:38:58.925Z,95944.9219
2023-05-05T00:39:59.936Z,95945.1562
2023-05-05T00:41:00.912Z,95943.9219
2023-05-05T00:42:01.995Z,95942.2344
2023-05-05T00:43:03.011Z,95942.6172
2023-05-05T00:44:04.082Z,95943.6953
2023-05-05T00:45:05.055Z,95945.4609
2023-05-05T00:46:06.137Z,95947.0000
2023-05-05T00:47:07.126Z,95947.0000
2023-05-05T00:48:08.224Z,95947.6172
2023-05-05T00:49:09.237Z,95946.6953
2023-05-05T00:50:10.270Z,95946.7656
2023-05-05T00:51:11.276Z,95946.6172
2023-05-05T00:52:21.587Z,95947.3672
2023-05-05T00:53:22.954Z,95948.7109
2023-05-05T00:54:23.998Z,95950.0781
2023-05-05T00:55:24.896Z,95951.3047
2023-05-05T00:56:25.967Z,95952.5391
2023-05-05T00:57:26.978Z,95954.0000
2023-05-05T00:58:28.132Z,95953.6953
2023-05-05T00:59:29.096Z,95953.1562
2023-05-05T01:00:30.109Z,95951.3047
2023-05-05T01:01:31.183Z,95951.4609
2023-05-05T01:02:32.276Z,95950.2344
2023-05-05T01:03:33.432Z,95949.1562
2023-05-05T01:04:34.297Z,95947.3047
2023-05-05T01:05:35.309Z,95947.8438
2023-05-05T01:06:36.316Z,95947.3828
2023-05-05T01:07:37.390Z,95946.3828
2023-05-05T01:08:38.421Z,95944.6953
2023-05-05T01:09:39.471Z,95942.6172
2023-05-05T01:10:40.601Z,95941.4609
2023-05-05T01:11:41.630Z,95939.9219
2023-05-05T01:12:42.652Z,95940.2344
2023-05-05T01:13:43.693Z,95939.2344
2023-05-05T01:14:44.734Z,95940.2344
2023-05-05T01:15:45.711Z,95939.9219
2023-05-05T01:16:46.755Z,95940.4609
2023-05-05T01:17:47.813Z,95941.7656
2023-05-05T01:18:48.879Z,95942.6172
2023-05-05T01:19:49.926Z,95943.4609
2023-05-05T01:20:50.900Z,95944.6172
2023-05-05T01:21:51.953Z,95945.1562
2023-05-05T01:22:52.953Z,95945.4609
2023-05-05T01:23:54.013Z,95946.3047
2023-05-05T01:24:55.175Z,95948.4609
2023-05-05T01:25:56.109Z,95950.2344
2023-05-05T01:26:57.148Z,95951.3047
2023-05-05T01:27:58.135Z,95953.2344
2023-05-05T01:28:59.274Z,95955.9219
2023-05-05T01:30:00.257Z,95957.4609
2023-05-05T01:31:01.333Z,95956.4609
2023-05-05T01:32:02.328Z,95955.6953
2023-05-05T01:33:03.313Z,95956.1562
2023-05-05T01:34:04.418Z,95956.2344
2023-05-05T01:35:05.417Z,95956.9219
2023-05-05T01:36:06.433Z,95956.6172
2023-05-05T01:37:07.521Z,95956.9219
2023-05-05T01:38:08.493Z,95956.4609
2023-05-05T01:39:09.614Z,95957.0000
2023-05-05T01:40:10.617Z,95955.9219
2023-05-05T01:41:11.611Z,95955.4609
2023-05-05T01:42:12.610Z,95957.5391
2023-05-05T01:43:13.694Z,95958.6172
2023-05-05T01:44:14.774Z,95958.5391
2023-05-05T01:45:15.849Z,95957.1562
2023-05-05T01:46:16.867Z,95955.6953
2023-05-05T01:47:17.819Z,95956.2344
2023-05-05T01:48:18.882Z,95956.0781
2023-05-05T01:49:19.995Z,95954.6953
2023-05-05T01:50:21.002Z,95956.6172
2023-05-05T01:51:21.973Z,95957.2344
2023-05-05T01:52:23.026Z,95956.0781
2023-05-05T01:53:24.018Z,95956.0000
2023-05-05T01:54:25.131Z,95957.0000
2023-05-05T01:55:26.172Z,95956.4609
2023-05-05T01:56:27.223Z,95955.6172
2023-05-05T01:57:28.179Z,95954.9219
2023-05-05T01:58:29.224Z,95955.5391
2023-05-05T01:59:30.302Z,95953.3047
2023-05-05T02:00:31.400Z,95952.8438
2023-05-05T02:01:32.323Z,95951.5391
2023-05-05T02:02:33.413Z,95951.6172
2023-05-05T02:03:34.404Z,95951.8438
2023-05-05T02:04:35.463Z,95953.1562
2023-05-05T02:05:36.490Z,95951.8438
2023-05-05T02:06:37.491Z,95951.9219
2023-05-05T02:07:38.550Z,95951.3047
2023-05-05T02:08:39.579Z,95950.0781
2023-05-05T02:09:40.677Z,95949.0000
2023-05-05T02:10:41.706Z,95948.0781
2023-05-05T02:11:42.665Z,95946.9219
2023-05-05T02:12:43.720Z,95947.3047
2023-05-05T02:13:44.893Z,95946.1562
2023-05-05T02:14:45.909Z,95943.7656
2023-05-05T02:15:46.959Z,95942.4609
2023-05-05T02:16:47.868Z,95942.5391
2023-05-05T02:17:48.928Z,95943.0000
2023-05-05T02:18:49.953Z,95941.7656
2023-05-05T02:19:51.035Z,95941.6953
2023-05-05T02:20:52.080Z,95941.3828
2023-05-05T02:21:53.073Z,95940.7656
2023-05-05T02:22:54.132Z,95940.0000
2023-05-05T02:23:55.115Z,95940.1562
2023-05-05T02:24:56.233Z,95940.3828
2023-05-05T02:25:57.233Z,95940.3047
2023-05-05T02:26:58.219Z,95940.5391
2023-05-05T02:27:59.295Z,95941.3047
2023-05-05T02:29:00.298Z,95940.8438
2023-05-05T02:30:01.400Z,95940.8438
2023-05-05T02:31:02.466Z,95941.3047
2023-05-05T02:32:03.338Z,95941.4609
2023-05-05T02:33:04.513Z,95941.0000
2023-05-05T02:34:05.473Z,95940.0000
2023-05-05T02:35:06.620Z,95939.6172
2023-05-05T02:36:07.623Z,95938.1562
2023-05-05T02:37:08.573Z,95938.0000
2023-05-05T02:38:09.627Z,95937.5391
2023-05-05T02:39:10.660Z,95937.8438
2023-05-05T02:40:11.786Z,95939.0000
2023-05-05T02:41:12.797Z,95940.0000
2023-05-05T02:42:13.793Z,95940.6172
2023-05-05T02:43:14.823Z,95941.1562
2023-05-05T02:44:15.841Z,95942.9219
2023-05-05T02:45:16.914Z,95943.5391
2023-05-05T02:46:18.011Z,95944.0781
2023-05-05T02:47:18.949Z,95944.5391
2023-05-05T02:48:20.080Z,95944.3828
2023-05-05T02:49:21.016Z,95945.1562
2023-05-05T02:50:22.185Z,95945.6953
2023-05-05T02:51:23.131Z,95945.6172
2023-05-05T02:52:24.218Z,95945.9219
2023-05-05T02:53:25.135Z,95947.0781
2023-05-05T02:54:26.233Z,95947.9219
2023-05-05T02:55:27.276Z,95947.0781
2023-05-05T02:56:28.354Z,95948.2344
2023-05-05T02:57:29.309Z,95948.5391
2023-05-05T02:58:30.351Z,95948.6953
2023-05-05T02:59:31.373Z,95947.8438
2023-05-05T03:00:32.456Z,95948.6953
2023-05-05T03:01:33.525Z,95945.8438
2023-05-05T03:02:34.518Z,95945.0781
2023-05-05T03:03:35.609Z,95944.7656
2023-05-05T03:04:36.566Z,95943.6172
2023-05-05T03:05:37.692Z,95943.3828
2023-05-05T03:06:38.654Z,95944.0781
2023-05-05T03:07:39.653Z,95945.0781
2023-05-05T03:08:40.774Z,95945.3047
2023-05-05T03:09:41.712Z,95946.7656
2023-05-05T03:10:42.815Z,95947.3828
2023-05-05T03:11:43.867Z,95945.7656
2023-05-05T03:12:44.895Z,95943.4609
2023-05-05T03:13:45.914Z,95941.3828
2023-05-05T03:14:46.898Z,95939.6172
2023-05-05T03:15:47.996Z,95938.7656
2023-05-05T03:16:49.015Z,95936.6172
2023-05-05T03:17:50.021Z,95936.6172
2023-05-05T03:18:51.102Z,95934.4609
2023-05-05T03:19:52.080Z,95932.1562
2023-05-05T03:20:53.134Z,95931.6172
2023-05-05T03:21:54.275Z,95930.1562
2023-05-05T03:22:55.241Z,95929.3828
2023-05-05T03:23:56.293Z,95931.1562
2023-05-05T03:24:57.295Z,95932.1562
2023-05-05T03:25:58.336Z,95935.0000
2023-05-05T03:26:59.378Z,95935.6172
2023-05-05T03:28:00.352Z,95935.7656
2023-05-05T03:29:01.370Z,95936.6172
2023-05-05T03:30:02.448Z,95936.3828
2023-05-05T03:31:03.495Z,95936.1562
2023-05-05T03:32:04.656Z,95937.3047
2023-05-05T03:33:05.565Z,95937.9219
2023-05-05T03:34:06.575Z,95938.8438
2023-05-05T03:35:07.587Z,95941.1562
2023-05-05T03:36:08.675Z,95942.7656
2023-05-05T03:37:09.782Z,95943.5391
2023-05-05T03:38:10.771Z,95943.0000
2023-05-05T03:39:11.741Z,95941.3828
2023-05-05T03:40:12.783Z,95939.8438
2023-05-05T03:41:13.851Z,95939.9219
2023-05-05T03:42:14.931Z,95940.0781
2023-05-05T03:43:15.848Z,95940.6172
2023-05-05T03:44:16.953Z,95939.9219
2023-05-05T03:45:17.991Z,95938.8438
2023-05-05T03:46:19.139Z,95939.0000
2023-05-05T03:47:20.081Z,95940.1562
2023-05-05T03:48:21.033Z,95940.6953
2023-05-05T03:49:22.063Z,95941.3828
2023-05-05T03:50:23.185Z,95941.4609
2023-05-05T03:51:24.172Z,95940.7656
2023-05-05T03:52:25.208Z,95940.3828
2023-05-05T03:53:26.172Z,95940.3047
2023-05-05T03:54:27.230Z,95940.0781
2023-05-05T03:55:28.337Z,95940.1562
2023-05-05T03:56:29.428Z,95940.4609
2023-05-05T03:57:30.431Z,95941.6172
2023-05-05T03:58:31.391Z,95942.0781
2023-05-05T03:59:32.443Z,95942.6953
2023-05-05T04:00:33.453Z,95941.3828
2023-05-05T04:01:34.537Z,95942.0000
2023-05-05T04:02:35.627Z,95943.9219
2023-05-05T04:03:36.657Z,95945.0781
2023-05-05T04:04:37.618Z,95946.6953
2023-05-05T04:05:38.628Z,95948.0000
2023-05-05T04:06:39.757Z,95948.4609
2023-05-05T04:07:40.739Z,95949.6953
2023-05-05T04:08:41.790Z,95950.7656
2023-05-05T04:09:42.793Z,95952.5391
2023-05-05T04:10:43.836Z,95954.0781
2023-05-05T04:11:44.947Z,95955.5391
2023-05-05T04:12:46.003Z,95955.6953
2023-05-05T04:13:46.959Z,95956.3047
2023-05-05T04:14:48.000Z,95956.0000
2023-05-05T04:15:49.050Z,95955.6172
2023-05-05T04:16:50.097Z,95955.4609
2023-05-05T04:17:51.194Z,95954.7656
2023-05-05T04:18:52.157Z,95956.0000
2023-05-05T04:19:53.137Z,95957.2344
2023-05-05T04:20:54.219Z,95957.6172
2023-05-05T04:21:55.281Z,95956.0000
2023-05-05T04:22:56.389Z,95955.2344
2023-05-05T04:23:57.287Z,95953.0000
2023-05-05T04:24:58.353Z,95950.2344
2023-05-05T04:25:59.353Z,95951.0781
2023-05-05T04:27:00.505Z,95950.5391
2023-05-05T04:28:01.605Z,95950.3047
2023-05-05T04:29:02.526Z,95950.0000
2023-05-05T04:30:03.515Z,95949.9219
2023-05-05T04:31:04.563Z,95950.0000
2023-05-05T04:32:05.651Z,95951.7656
2023-05-05T04:33:06.674Z,95952.6953
2023-05-05T04:34:07.672Z,95952.3047
2023-05-05T04:35:08.684Z,95953.0781
2023-05-05T04:36:09.735Z,95953.1562
2023-05-05T04:37:10.853Z,95954.3047
2023-05-05T04:38:11.870Z,95956.0000
2023-05-05T04:39:12.837Z,95957.7656
2023-05-05T04:40:13.902Z,95958.6172
2023-05-05T04:41:14.939Z,95960.1562
2023-05-05T04:42:15.995Z,95960.1562
2023-05-05T04:43:17.007Z,95959.0781
2023-05-05T04:44:17.976Z,95960.6172
2023-05-05T04:45:19.072Z,95960.3047
2023-05-05T04:46:20.200Z,95958.7656
2023-05-05T04:47:21.172Z,95959.3047
2023-05-05T04:48:22.194Z,95959.9219
2023-05-05T04:49:23.201Z,95959.3047
2023-05-05T04:50:24.205Z,95959.3828
2023-05-05T04:51:25.248Z,95959.6172
2023-05-05T04:52:26.334Z,95960.6953
2023-05-05T04:53:27.401Z,95961.6172
2023-05-05T04:54:28.407Z,95960.9219
2023-05-05T04:55:29.399Z,95961.3047
2023-05-05T04:56:30.447Z,95960.0000
2023-05-05T04:57:31.518Z,95957.6953
2023-05-05T04:58:32.562Z,95956.0781
2023-05-05T04:59:33.558Z,95955.7656
2023-05-05T05:00:34.622Z,95956.1562
2023-05-05T05:01:37.730Z,95957.0000
2023-05-05T05:02:36.727Z,95958.6953
2023-05-05T05:03:39.156Z,95960.3047
2023-05-05T05:04:38.765Z,95964.3828
2023-05-05T05:05:39.757Z,95965.1562
2023-05-05T05:06:40.797Z,95963.3828
2023-05-05T05:07:41.878Z,95962.6953
2023-05-05T05:08:42.910Z,95961.9219
2023-05-05T05:09:43.956Z,95962.3047
2023-05-05T05:10:44.999Z,95963.6172
2023-05-05T05:11:46.030Z,95965.4609
2023-05-05T05:12:47.032Z,95968.0781
2023-05-05T05:13:48.062Z,95969.2344
2023-05-05T05:14:49.067Z,95969.9219
2023-05-05T05:15:50.107Z,95970.7656
2023-05-05T05:16:51.225Z,95970.7656
2023-05-05T05:17:52.181Z,95971.1562
2023-05-05T05:18:53.213Z,95970.4609
2023-05-05T05:19:54.245Z,95970.7656
2023-05-05T05:20:55.245Z,95971.1562
2023-05-05T05:21:56.289Z,95972.6172
2023-05-05T05:22:57.373Z,95974.0000
2023-05-05T05:23:58.402Z,95975.0000
2023-05-05T05:24:59.408Z,95976.3047
2023-05-05T05:26:00.421Z,95978.3828
2023-05-05T05:27:01.452Z,95979.5391
2023-05-05T05:28:10.164Z,95980.8438
2023-05-05T05:29:03.630Z,95978.1562
2023-05-05T05:30:04.592Z,95977.5391
2023-05-05T05:31:05.606Z,95977.3047
2023-05-05T05:32:06.814Z,95978.0781
2023-05-05T05:33:07.855Z,95980.5391
2023-05-05T05:34:09.767Z,95982.3828
2023-05-05T05:35:09.769Z,95982.1562
2023-05-05T05:36:10.803Z,95982.6172
2023-05-05T05:37:11.843Z,95980.3047
2023-05-05T05:38:12.918Z,95982.0000
2023-05-05T05:39:14.104Z,95980.8438
2023-05-05T05:40:14.945Z,95981.3047
2023-05-05T05:41:15.963Z,95982.3828
2023-05-05T05:42:17.018Z,95983.9219
2023-05-05T05:43:18.055Z,95984.5391
2023-05-05T05:44:19.194Z,95985.5391
2023-05-05T05:45:20.115Z,95985.3828
2023-05-05T05:46:21.217Z,95986.5391
2023-05-05T05:47:22.182Z,95988.6172
2023-05-05T05:48:23.270Z,95988.2344
2023-05-05T05:49:24.338Z,95989.7656
2023-05-05T05:50:25.323Z,95990.0000
2023-05-05T05:51:26.322Z,95990.3828
2023-05-05T05:52:27.383Z,95992.8438
2023-05-05T05:53:28.430Z,95996.7656
2023-05-05T05:54:29.443Z,95997.5391
2023-05-05T05:55:30.513Z,95997.3828
2023-05-05T05:56:31.533Z,95998.0781
2023-05-05T05:57:32.563Z,95999.3047
2023-05-05T05:58:33.587Z,95998.4609
2023-05-05T05:59:34.658Z,95999.6172
2023-05-05T06:00:35.616Z,96000.0781
2023-05-05T06:01:36.694Z,96000.5391
2023-05-05T06:02:37.791Z,95999.7656
2023-05-05T06:03:38.869Z,95999.6172
2023-05-05T06:04:39.880Z,95998.4609
2023-05-05T06:05:40.844Z,95997.8438
2023-05-05T06:06:41.824Z,95997.9219
2023-05-05T06:07:42.927Z,95999.0000
2023-05-05T06:08:43.950Z,96000.2344
2023-05-05T06:09:44.984Z,95998.8438
2023-05-05T06:10:46.001Z,95999.9219
2023-05-05T06:11:47.036Z,96001.0781
2023-05-05T06:12:48.084Z,96000.6953
2023-05-05T06:13:49.083Z,95999.9219
2023-05-05T06:14:50.154Z,95999.8438
2023-05-05T06:15:51.240Z,95998.2344
2023-05-05T06:16:52.228Z,95998.3047
2023-05-05T06:17:53.311Z,95998.9219
2023-05-05T06:18:54.284Z,96000.8438
2023-05-05T06:19:55.354Z,96000.5391
2023-05-05T06:20:56.361Z,96000.7656
2023-05-05T06:21:57.419Z,96001.3047
2023-05-05T06:22:58.452Z,96002.0781
2023-05-05T06:23:59.475Z,96001.3828
2023-05-05T06:25:00.502Z,96001.9219
2023-05-05T06:26:01.604Z,96002.0781
2023-05-05T06:27:02.600Z,96002.2344
2023-05-05T06:28:03.611Z,96002.3828
2023-05-05T06:29:04.614Z,96002.3047
2023-05-05T06:30:05.937Z,96000.3047
2023-05-05T06:31:06.747Z,95996.9219
2023-05-05T06:32:07.784Z,95996.3047
2023-05-05T06:33:08.820Z,95995.4609
2023-05-05T06:34:09.782Z,95995.5391
2023-05-05T06:35:10.854Z,95995.9219
2023-05-05T06:36:11.916Z,95994.6172
2023-05-05T06:37:12.923Z,95990.8438
2023-05-05T06:38:14.148Z,95990.1562
2023-05-05T06:39:16.169Z,95991.8438
2023-05-05T06:40:16.125Z,95991.7656
2023-05-05T06:41:17.148Z,95992.6172
2023-05-05T06:42:18.230Z,95995.0000
2023-05-05T06:43:19.265Z,95995.8438
2023-05-05T06:44:20.302Z,95995.8438
2023-05-05T06:45:21.287Z,95998.0781
2023-05-05T06:46:22.407Z,95997.4609
2023-05-05T06:47:23.404Z,96000.5391
2023-05-05T06:48:24.447Z,95999.8438
2023-05-05T06:49:25.464Z,96001.0000
2023-05-05T06:50:26.463Z,96001.0781
2023-05-05T06:51:27.502Z,96001.0000
2023-05-05T06:52:28.614Z,95999.7656
2023-05-05T06:53:29.576Z,95999.3828
2023-05-05T06:54:30.593Z,96001.5391
2023-05-05T06:55:31.731Z,96000.8438
2023-05-05T06:56:32.701Z,96000.6172
2023-05-05T06:57:33.746Z,96002.5391
2023-05-05T06:58:34.841Z,96002.0000
2023-05-05T06:59:35.791Z,96000.6953
2023-05-05T07:00:36.894Z,96001.1562
2023-05-05T07:01:37.858Z,95999.2344
2023-05-05T07:02:39.055Z,95998.6172
2023-05-05T07:03:40.020Z,95997.3047
2023-05-05T07:04:41.096Z,95997.1562
2023-05-05T07:05:42.007Z,95997.7656
2023-05-05T07:06:43.140Z,95997.1562
2023-05-05T07:07:44.114Z,95999.3047
2023-05-05T07:08:45.226Z,96001.1562
2023-05-05T07:09:46.195Z,96002.5391
2023-05-05T07:10:47.328Z,96001.6172
2023-05-05T07:11:48.268Z,96003.3047
2023-05-05T07:12:49.387Z,96002.7656
2023-05-05T07:13:50.371Z,96003.2344
2023-05-05T07:14:51.417Z,96000.7656
2023-05-05T07:15:52.390Z,95999.7656
2023-05-05T07:16:53.590Z,95998.3047
2023-05-05T07:17:54.547Z,95999.9219
2023-05-05T07:18:55.538Z,95999.2344
2023-05-05T07:19:56.579Z,95996.7656
2023-05-05T07:20:57.542Z,95996.3828
2023-05-05T07:21:58.596Z,95996.0781
2023-05-05T07:22:59.621Z,95995.3828
2023-05-05T07:24:00.714Z,95995.2344
2023-05-05T07:25:01.707Z,95993.9219
2023-05-05T07:26:02.850Z,95991.3047
2023-05-05T07:27:03.740Z,95991.5391
2023-05-05T07:28:04.841Z,95991.0000
2023-05-05T07:29:05.873Z,95988.6953
2023-05-05T07:30:11.211Z,95989.0000
2023-05-05T07:31:07.889Z,95991.0781
2023-05-05T07:32:09.024Z,95995.6953
2023-05-05T07:33:10.087Z,95995.7656
2023-05-05T07:34:11.058Z,95992.6172
2023-05-05T07:35:12.127Z,95990.7656
2023-05-05T07:36:13.151Z,95992.1562
2023-05-05T07:37:14.106Z,95993.0000
2023-05-05T07:38:15.165Z,95993.6953
2023-05-05T07:39:16.223Z,95995.2344
2023-05-05T07:40:17.279Z,95996.4609
2023-05-05T07:41:18.299Z,95995.7656
2023-05-05T07:42:19.316Z,95991.0781
2023-05-05T07:43:20.318Z,95989.8438
2023-05-05T07:44:21.459Z,95989.3828
2023-05-05T07:45:22.424Z,95987.2344
2023-05-05T07:46:23.467Z,95984.6953
2023-05-05T07:47:24.542Z,95984.6953
2023-05-05T07:48:25.566Z,95984.0781
2023-05-05T07:49:26.569Z,95984.2344
2023-05-05T07:50:27.627Z,95983.0000
2023-05-05T07:51:28.594Z,95982.6172
2023-05-05T07:52:44.223Z,95983.8438
2023-05-05T07:53:30.666Z,95984.2344
2023-05-05T07:54:31.799Z,95983.2344
2023-05-05T07:55:32.752Z,95983.0781
2023-05-05T07:56:33.856Z,95981.6953
2023-05-05T07:57:34.796Z,95983.0781
2023-05-05T07:58:35.865Z,95983.6172
2023-05-05T07:59:36.914Z,95985.6953
2023-05-05T08:00:37.981Z,95985.8438
2023-05-05T08:01:38.930Z,95985.3828
2023-05-05T08:02:40.067Z,95985.2344
2023-05-05T08:03:41.076Z,95984.4609
2023-05-05T08:04:42.306Z,95983.6172
2023-05-05T08:05:43.187Z,95983.0000
2023-05-05T08:06:44.194Z,95981.3828
2023-05-05T08:07:45.189Z,95981.0000
2023-05-05T08:08:46.166Z,95980.3047
2023-05-05T08:09:47.285Z,95977.0781
2023-05-05T08:10:48.318Z,95976.3828
2023-05-05T08:11:49.365Z,95974.0781
2023-05-05T08:12:50.322Z,95972.1562
2023-05-05T08:13:51.447Z,95972.4609
2023-05-05T08:14:52.418Z,95975.1562
2023-05-05T08:15:53.542Z,95972.0781
2023-05-05T08:16:54.472Z,95970.9219
2023-05-05T08:17:55.582Z,95969.0781
2023-05-05T08:18:56.539Z,95968.2344
2023-05-05T08:19:57.620Z,95967.1562
2023-05-05T08:20:58.652Z,95966.6953
2023-05-05T08:22:01.374Z,95968.1562
2023-05-05T08:23:00.686Z,95969.4609
2023-05-05T08:24:01.732Z,95966.8438
2023-05-05T08:25:02.782Z,95967.8438
2023-05-05T08:26:03.887Z,95968.3047
2023-05-05T08:27:04.872Z,95968.0781
2023-05-05T08:28:05.866Z,95965.6953
2023-05-05T08:29:06.872Z,95965.2344
2023-05-05T08:30:07.981Z,95967.7656
2023-05-05T08:31:09.011Z,95969.7656
2023-05-05T08:32:10.020Z,95970.6953
2023-05-05T08:33:11.094Z,95969.1562
2023-05-05T08:34:12.088Z,95967.0000
2023-05-05T08:35:13.359Z,95965.3828
2023-05-05T08:36:14.185Z,95966.5391
2023-05-05T08:37:15.206Z,95967.6953
2023-05-05T08:38:16.223Z,95967.2344
2023-05-05T08:39:17.316Z,95966.8438
2023-05-05T08:40:18.321Z,95967.0000
2023-05-05T08:41:19.345Z,95965.6172
2023-05-05T08:42:35.605Z,95963.3047
2023-05-05T08:43:21.331Z,95962.0000
2023-05-05T08:44:22.401Z,95960.6953
2023-05-05T08:45:23.481Z,95960.4609
2023-05-05T08:46:24.523Z,95958.0781
2023-05-05T08:47:25.527Z,95956.4609
2023-05-05T08:48:26.596Z,95955.0000
2023-05-05T08:49:27.536Z,95954.1562
2023-05-05T08:50:28.647Z,95954.6172
2023-05-05T08:51:29.674Z,95953.7656
2023-05-05T08:52:30.741Z,95952.3828
2023-05-05T08:53:31.716Z,95952.4609
2023-05-05T08:54:32.738Z,95950.4609
2023-05-05T08:55:33.794Z,95949.6172
2023-05-05T08:56:34.847Z,95950.6953
2023-05-05T08:57:35.917Z,95949.8438
2023-05-05T08:58:36.910Z,95949.9219
2023-05-05T08:59:37.908Z,95950.0000
2023-05-05T09:00:39.028Z,95950.4609
2023-05-05T09:01:40.042Z,95951.5391
2023-05-05T09:02:41.105Z,95951.3047
2023-05-05T09:03:42.311Z,95950.9219
2023-05-05T09:04:43.093Z,95951.0781
2023-05-05T09:05:44.151Z,95949.0000
2023-05-05T09:06:45.234Z,95948.3828
2023-05-05T09:07:46.233Z,95948.3047
2023-05-05T09:08:47.235Z,95948.2344
2023-05-05T09:09:48.246Z,95947.0781
2023-05-05T09:10:49.435Z,95948.0781
2023-05-05T09:11:50.447Z,95949.2344
2023-05-05T09:12:51.702Z,95948.7656
2023-05-05T09:13:52.469Z,95949.0000
2023-05-05T09:14:53.552Z,95947.6172
2023-05-05T09:15:54.565Z,95945.6172
2023-05-05T09:16:55.601Z,95942.7656
2023-05-05T09:17:56.636Z,95942.5391
2023-05-05T09:18:57.654Z,95943.0000
2023-05-05T09:19:58.672Z,95941.5391
2023-05-05T09:20:59.826Z,95941.7656
2023-05-05T09:22:00.804Z,95943.0000
2023-05-05T09:23:01.790Z,95940.8438
2023-05-05T09:24:07.824Z,95938.7656
2023-05-05T09:25:03.902Z,95939.7656
2023-05-05T09:26:04.954Z,95938.4609
2023-05-05T09:27:05.976Z,95938.1562
2023-05-05T09:28:07.008Z,95939.3047
2023-05-05T09:29:08.006Z,95940.0781
2023-05-05T09:30:09.037Z,95939.1562
2023-05-05T09:31:10.149Z,95938.8438
2023-05-05T09:32:11.241Z,95935.9219
2023-05-05T09:33:12.177Z,95933.9219
2023-05-05T09:34:13.185Z,95931.3047
2023-05-05T09:35:14.253Z,95927.6172
2023-05-05T09:36:15.280Z,95924.6172
2023-05-05T09:37:16.285Z,95923.1562
2023-05-05T09:38:17.338Z,95923.3047
2023-05-05T09:39:18.346Z,95923.6172
2023-05-05T09:40:19.533Z,95924.1562
2023-05-05T09:41:20.441Z,95925.0000
2023-05-05T09:42:21.540Z,95924.3828
2023-05-05T09:43:22.496Z,95922.3828
2023-05-05T09:44:23.497Z,95922.4609
2023-05-05T09:45:24.516Z,95920.6172
2023-05-05T09:46:25.726Z,95918.3047
2023-05-05T09:47:29.904Z,95920.2344
2023-05-05T09:48:27.736Z,95917.9219
2023-05-05T09:49:28.653Z,95911.9219
2023-05-05T09:50:29.730Z,95908.3828
2023-05-05T09:51:30.753Z,95909.3828
2023-05-05T09:52:31.831Z,95908.8438
2023-05-05T09:53:32.797Z,95907.0000
2023-05-05T09:54:33.835Z,95906.3828
2023-05-05T09:55:34.826Z,95905.3828
2023-05-05T09:56:35.966Z,95906.0000
2023-05-05T09:57:37.011Z,95905.7656
2023-05-05T09:58:38.077Z,95905.6953
2023-05-05T09:59:38.986Z,95905.3047
2023-05-05T10:00:40.009Z,95904.4609
2023-05-05T10:01:41.115Z,95901.8438
2023-05-05T10:02:42.242Z,95897.9219
2023-05-05T10:03:43.105Z,95897.6953
2023-05-05T10:04:44.158Z,95898.4609
2023-05-05T10:05:45.157Z,95897.2344
2023-05-05T10:06:46.263Z,95893.3828
2023-05-05T10:07:47.321Z,95890.6953
2023-05-05T10:08:48.285Z,95891.0000
2023-05-05T10:09:49.329Z,95889.4609
2023-05-05T10:10:50.326Z,95888.0000
2023-05-05T10:11:51.442Z,95887.8438
2023-05-05T10:12:52.496Z,95887.1562
2023-05-05T10:13:53.479Z,95888.6953
2023-05-05T10:14:54.434Z,95889.3047
2023-05-05T10:15:55.518Z,95888.6953
2023-05-05T10:16:56.593Z,95888.9219
2023-05-05T10:18:06.893Z,95890.1562
2023-05-05T10:18:58.591Z,95891.9219
2023-05-05T10:19:59.640Z,95891.3828
2023-05-05T10:21:00.662Z,95888.9219
2023-05-05T10:22:01.740Z,95887.1562
2023-05-05T10:23:02.715Z,95885.1562
2023-05-05T10:24:03.661Z,95883.0781
2023-05-05T10:25:04.724Z,95881.1562
2023-05-05T10:26:05.725Z,95877.4609
2023-05-05T10:27:06.808Z,95874.0000
2023-05-05T10:28:07.843Z,95871.8438
2023-05-05T10:29:08.868Z,95872.1562
2023-05-05T10:30:10.110Z,95871.9219
2023-05-05T10:31:24.587Z,95867.6172
2023-05-05T10:32:33.545Z,95866.3828
2023-05-05T10:33:30.212Z,95864.4609
2023-05-05T10:34:14.107Z,95866.3828
2023-05-05T10:35:15.074Z,95865.6172
2023-05-05T10:36:16.136Z,95862.4609
2023-05-05T10:37:17.125Z,95860.4609
2023-05-05T10:38:18.160Z,95860.1562
2023-05-05T10:39:19.336Z,95861.8438
2023-05-05T10:40:20.377Z,95861.6953
2023-05-05T10:41:21.334Z,95861.3047
2023-05-05T10:42:22.424Z,95862.0000
2023-05-05T10:43:23.540Z,95860.5391
2023-05-05T10:44:24.572Z,95858.1562
2023-05-05T10:45:25.627Z,95857.4609
2023-05-05T10:46:26.770Z,95856.9219
2023-05-05T10:47:27.590Z,95855.8438
2023-05-05T10:48:28.700Z,95853.3828
2023-05-05T10:49:29.734Z,95851.2344
2023-05-05T10:50:30.780Z,95848.8438
2023-05-05T10:51:40.459Z,95848.2344
2023-05-05T10:52:32.789Z,95847.1562
2023-05-05T10:53:33.825Z,95842.6172
2023-05-05T10:54:37.173Z,95840.7656
2023-05-05T10:55:35.879Z,95841.2344
2023-05-05T10:56:36.940Z,95838.0000
2023-05-05T10:57:37.976Z,95837.2344
2023-05-05T10:58:47.477Z,95835.5391
2023-05-05T10:59:40.181Z,95837.4609
2023-05-05T11:00:41.077Z,95835.8438
2023-05-05T11:01:42.145Z,95835.3047
2023-05-05T11:02:43.212Z,95832.4609
2023-05-05T11:03:44.206Z,95829.6953
2023-05-05T11:04:45.237Z,95829.8438
2023-05-05T11:05:46.195Z,95828.7656
2023-05-05T11:06:47.300Z,95828.3047
2023-05-05T11:07:48.282Z,95827.2344
2023-05-05T11:08:49.354Z,95825.6172
2023-05-05T11:09:50.479Z,95822.8438
2023-05-05T11:10:51.420Z,95820.7656
2023-05-05T11:11:52.446Z,95818.5391
2023-05-05T11:12:53.521Z,95817.6953
2023-05-05T11:13:54.530Z,95816.0000
2023-05-05T11:14:55.621Z,95815.0781
2023-05-05T11:15:56.536Z,95812.7656
2023-05-05T11:16:57.640Z,95810.8438